sensor_id;sensor_type;location;lat;lon;timestamp;temperature;humidity
51305;HTU21D;37392;50.964;6.952;2023-02-28T00:00:35;0.14;87.26
51305;HTU21D;37392;50.964;6.952;2023-02-28T00:03:01;0.08;87.36
51305;HTU21D;37392;50.964;6.952;2023-02-28T00:05:28;-0.03;87.60
51305;HTU21D;37392;50.964;6.952;2023-02-28T00:07:54;-0.16;88.25
51305;HTU21D;37392;50.964;6.952;2023-02-28T00:10:25;-0.27;88.85
51305;HTU21D;37392;50.964;6.952;2023-02-28T00:12:54;-0.31;89.31
51305;HTU21D;37392;50.964;6.952;2023-02-28T00:15:22;-0.25;89.41
51305;HTU21D;37392;50.964;6.952;2023-02-28T00:17:48;-0.23;89.29
51305;HTU21D;37392;50.964;6.952;2023-02-28T00:20:14;-0.31;89.38
51305;HTU21D;37392;50.964;6.952;2023-02-28T00:22:43;-0.30;89.79
51305;HTU21D;37392;50.964;6.952;2023-02-28T00:25:12;-0.30;89.57
51305;HTU21D;37392;50.964;6.952;2023-02-28T00:27:39;-0.30;89.78
51305;HTU21D;37392;50.964;6.952;2023-02-28T00:30:07;-0.30;89.65
51305;HTU21D;37392;50.964;6.952;2023-02-28T00:32:35;-0.35;89.66
51305;HTU21D;37392;50.964;6.952;2023-02-28T00:35:01;-0.31;89.59
51305;HTU21D;37392;50.964;6.952;2023-02-28T00:37:27;-0.25;89.71
51305;HTU21D;37392;50.964;6.952;2023-02-28T00:39:53;-0.25;89.54
51305;HTU21D;37392;50.964;6.952;2023-02-28T00:42:18;-0.43;89.72
51305;HTU21D;37392;50.964;6.952;2023-02-28T00:44:44;-0.47;90.31
51305;HTU21D;37392;50.964;6.952;2023-02-28T00:47:10;-0.44;90.61
51305;HTU21D;37392;50.964;6.952;2023-02-28T00:49:35;-0.43;90.21
51305;HTU21D;37392;50.964;6.952;2023-02-28T00:52:02;-0.37;90.47
51305;HTU21D;37392;50.964;6.952;2023-02-28T00:54:28;-0.47;90.42
51305;HTU21D;37392;50.964;6.952;2023-02-28T00:56:53;-0.38;90.63
51305;HTU21D;37392;50.964;6.952;2023-02-28T00:59:19;-0.35;90.24
51305;HTU21D;37392;50.964;6.952;2023-02-28T01:01:45;-0.37;90.21
51305;HTU21D;37392;50.964;6.952;2023-02-28T01:04:12;-0.46;90.44
51305;HTU21D;37392;50.964;6.952;2023-02-28T01:06:39;-0.47;90.57
51305;HTU21D;37392;50.964;6.952;2023-02-28T01:09:06;-0.46;90.74
51305;HTU21D;37392;50.964;6.952;2023-02-28T01:11:32;-0.47;90.71
51305;HTU21D;37392;50.964;6.952;2023-02-28T01:13:59;-0.43;90.57
51305;HTU21D;37392;50.964;6.952;2023-02-28T01:16:24;-0.43;90.63
51305;HTU21D;37392;50.964;6.952;2023-02-28T01:18:50;-0.47;91.07
51305;HTU21D;37392;50.964;6.952;2023-02-28T01:21:18;-0.45;91.05
51305;HTU21D;37392;50.964;6.952;2023-02-28T01:23:46;-0.39;90.61
51305;HTU21D;37392;50.964;6.952;2023-02-28T01:26:19;-0.35;89.95
51305;HTU21D;37392;50.964;6.952;2023-02-28T01:28:47;-0.52;90.17
51305;HTU21D;37392;50.964;6.952;2023-02-28T01:31:13;-0.64;91.18
51305;HTU21D;37392;50.964;6.952;2023-02-28T01:33:39;-0.64;91.68
51305;HTU21D;37392;50.964;6.952;2023-02-28T01:36:09;-0.73;91.76
51305;HTU21D;37392;50.964;6.952;2023-02-28T01:38:39;-0.68;91.89
51305;HTU21D;37392;50.964;6.952;2023-02-28T01:41:05;-0.77;91.77
51305;HTU21D;37392;50.964;6.952;2023-02-28T01:43:53;-0.70;91.76
51305;HTU21D;37392;50.964;6.952;2023-02-28T01:46:19;-0.62;91.15
51305;HTU21D;37392;50.964;6.952;2023-02-28T01:48:51;-0.70;91.21
51305;HTU21D;37392;50.964;6.952;2023-02-28T01:51:33;-0.70;91.46
51305;HTU21D;37392;50.964;6.952;2023-02-28T01:54:07;-0.72;91.45
51305;HTU21D;37392;50.964;6.952;2023-02-28T01:56:49;-0.74;91.54
51305;HTU21D;37392;50.964;6.952;2023-02-28T01:59:35;-0.71;91.26
51305;HTU21D;37392;50.964;6.952;2023-02-28T02:02:05;-0.69;91.31
51305;HTU21D;37392;50.964;6.952;2023-02-28T02:04:39;-0.74;91.21
51305;HTU21D;37392;50.964;6.952;2023-02-28T02:07:12;-0.79;91.34
51305;HTU21D;37392;50.964;6.952;2023-02-28T02:09:39;-0.71;91.24
51305;HTU21D;37392;50.964;6.952;2023-02-28T02:12:18;-0.64;91.35
51305;HTU21D;37392;50.964;6.952;2023-02-28T02:15:50;-0.56;90.83
51305;HTU21D;37392;50.964;6.952;2023-02-28T02:18:31;-0.64;90.59
51305;HTU21D;37392;50.964;6.952;2023-02-28T02:27:22;-0.82;91.15
51305;HTU21D;37392;50.964;6.952;2023-02-28T02:36:09;-0.94;91.38
51305;HTU21D;37392;50.964;6.952;2023-02-28T02:38:51;-0.88;91.45
51305;HTU21D;37392;50.964;6.952;2023-02-28T02:44:08;-0.95;90.80
51305;HTU21D;37392;50.964;6.952;2023-02-28T02:46:41;-1.14;90.84
51305;HTU21D;37392;50.964;6.952;2023-02-28T02:49:15;-0.86;90.33
51305;HTU21D;37392;50.964;6.952;2023-02-28T02:51:43;-0.83;89.02
51305;HTU21D;37392;50.964;6.952;2023-02-28T02:54:40;-0.95;88.76
51305;HTU21D;37392;50.964;6.952;2023-02-28T02:57:17;-0.97;88.52
51305;HTU21D;37392;50.964;6.952;2023-02-28T02:59:49;-0.90;88.16
51305;HTU21D;37392;50.964;6.952;2023-02-28T03:02:17;-1.01;88.03
51305;HTU21D;37392;50.964;6.952;2023-02-28T03:04:46;-1.09;88.52
51305;HTU21D;37392;50.964;6.952;2023-02-28T03:07:16;-1.09;88.26
51305;HTU21D;37392;50.964;6.952;2023-02-28T03:09:53;-1.02;87.49
51305;HTU21D;37392;50.964;6.952;2023-02-28T03:12:20;-0.89;86.03
51305;HTU21D;37392;50.964;6.952;2023-02-28T03:15:29;-1.04;86.32
51305;HTU21D;37392;50.964;6.952;2023-02-28T03:18:04;-1.12;86.68
51305;HTU21D;37392;50.964;6.952;2023-02-28T03:20:41;-1.16;86.83
51305;HTU21D;37392;50.964;6.952;2023-02-28T03:23:35;-1.21;87.25
51305;HTU21D;37392;50.964;6.952;2023-02-28T03:26:11;-1.30;87.43
51305;HTU21D;37392;50.964;6.952;2023-02-28T03:31:38;-1.52;87.80
51305;HTU21D;37392;50.964;6.952;2023-02-28T03:36:57;-1.44;88.16
51305;HTU21D;37392;50.964;6.952;2023-02-28T03:39:37;-1.49;88.53
51305;HTU21D;37392;50.964;6.952;2023-02-28T03:42:24;-1.47;88.66
51305;HTU21D;37392;50.964;6.952;2023-02-28T03:49:53;-1.55;89.31
51305;HTU21D;37392;50.964;6.952;2023-02-28T03:52:28;-1.58;89.68
51305;HTU21D;37392;50.964;6.952;2023-02-28T03:55:01;-1.71;89.99
51305;HTU21D;37392;50.964;6.952;2023-02-28T03:57:44;-1.72;90.54
51305;HTU21D;37392;50.964;6.952;2023-02-28T04:00:27;-1.65;91.16
51305;HTU21D;37392;50.964;6.952;2023-02-28T04:02:57;-1.61;91.28
51305;HTU21D;37392;50.964;6.952;2023-02-28T04:05:23;-1.72;91.42
51305;HTU21D;37392;50.964;6.952;2023-02-28T04:07:49;-1.72;91.90
51305;HTU21D;37392;50.964;6.952;2023-02-28T04:10:16;-1.69;92.21
51305;HTU21D;37392;50.964;6.952;2023-02-28T04:12:42;-1.63;92.42
51305;HTU21D;37392;50.964;6.952;2023-02-28T04:15:08;-1.60;92.45
51305;HTU21D;37392;50.964;6.952;2023-02-28T04:17:33;-1.48;92.27
51305;HTU21D;37392;50.964;6.952;2023-02-28T04:19:59;-1.68;92.69
51305;HTU21D;37392;50.964;6.952;2023-02-28T04:22:24;-1.59;93.21
51305;HTU21D;37392;50.964;6.952;2023-02-28T04:24:53;-1.53;93.01
51305;HTU21D;37392;50.964;6.952;2023-02-28T04:27:21;-1.47;93.13
51305;HTU21D;37392;50.964;6.952;2023-02-28T04:29:47;-1.49;93.27
51305;HTU21D;37392;50.964;6.952;2023-02-28T04:32:13;-1.54;93.57
51305;HTU21D;37392;50.964;6.952;2023-02-28T04:34:38;-1.52;93.62
51305;HTU21D;37392;50.964;6.952;2023-02-28T04:37:04;-1.57;93.72
51305;HTU21D;37392;50.964;6.952;2023-02-28T04:39:35;-1.59;93.64
51305;HTU21D;37392;50.964;6.952;2023-02-28T04:42:01;-1.59;93.66
51305;HTU21D;37392;50.964;6.952;2023-02-28T04:44:26;-1.62;93.43
51305;HTU21D;37392;50.964;6.952;2023-02-28T04:46:52;-1.52;92.91
51305;HTU21D;37392;50.964;6.952;2023-02-28T04:49:18;-1.31;91.98
51305;HTU21D;37392;50.964;6.952;2023-02-28T04:51:43;-1.26;91.17
51305;HTU21D;37392;50.964;6.952;2023-02-28T04:54:09;-1.25;90.69
51305;HTU21D;37392;50.964;6.952;2023-02-28T04:56:35;-1.12;89.63
51305;HTU21D;37392;50.964;6.952;2023-02-28T04:59:00;-1.02;88.70
51305;HTU21D;37392;50.964;6.952;2023-02-28T05:01:28;-1.12;88.68
51305;HTU21D;37392;50.964;6.952;2023-02-28T05:03:56;-1.15;88.53
51305;HTU21D;37392;50.964;6.952;2023-02-28T05:06:24;-1.16;88.51
51305;HTU21D;37392;50.964;6.952;2023-02-28T05:08:51;-1.25;88.80
51305;HTU21D;37392;50.964;6.952;2023-02-28T05:11:29;-1.29;88.86
51305;HTU21D;37392;50.964;6.952;2023-02-28T05:14:03;-1.17;88.60
51305;HTU21D;37392;50.964;6.952;2023-02-28T05:16:30;-1.15;88.06
51305;HTU21D;37392;50.964;6.952;2023-02-28T05:18:56;-1.17;88.03
51305;HTU21D;37392;50.964;6.952;2023-02-28T05:21:39;-1.24;88.00
51305;HTU21D;37392;50.964;6.952;2023-02-28T05:24:10;-1.18;88.07
51305;HTU21D;37392;50.964;6.952;2023-02-28T05:26:39;-1.34;88.16
51305;HTU21D;37392;50.964;6.952;2023-02-28T05:29:06;-1.38;88.37
51305;HTU21D;37392;50.964;6.952;2023-02-28T05:31:32;-1.35;88.56
51305;HTU21D;37392;50.964;6.952;2023-02-28T05:33:58;-1.40;88.12
51305;HTU21D;37392;50.964;6.952;2023-02-28T05:36:23;-1.42;88.19
51305;HTU21D;37392;50.964;6.952;2023-02-28T05:38:50;-1.36;87.93
51305;HTU21D;37392;50.964;6.952;2023-02-28T05:41:16;-1.44;87.86
51305;HTU21D;37392;50.964;6.952;2023-02-28T05:43:44;-1.30;87.57
51305;HTU21D;37392;50.964;6.952;2023-02-28T05:46:11;-1.18;86.51
51305;HTU21D;37392;50.964;6.952;2023-02-28T05:48:39;-1.29;86.22
51305;HTU21D;37392;50.964;6.952;2023-02-28T05:51:06;-1.17;85.70
51305;HTU21D;37392;50.964;6.952;2023-02-28T05:53:33;-1.13;85.16
51305;HTU21D;37392;50.964;6.952;2023-02-28T05:55:59;-1.08;84.74
51305;HTU21D;37392;50.964;6.952;2023-02-28T05:58:25;-1.20;84.93
51305;HTU21D;37392;50.964;6.952;2023-02-28T06:00:54;-1.05;84.59
51305;HTU21D;37392;50.964;6.952;2023-02-28T06:03:20;-0.99;83.45
51305;HTU21D;37392;50.964;6.952;2023-02-28T06:05:45;-0.99;83.05
51305;HTU21D;37392;50.964;6.952;2023-02-28T06:08:11;-0.98;82.98
51305;HTU21D;37392;50.964;6.952;2023-02-28T06:10:36;-1.03;83.09
51305;HTU21D;37392;50.964;6.952;2023-02-28T06:13:03;-1.17;83.79
51305;HTU21D;37392;50.964;6.952;2023-02-28T06:15:29;-1.17;84.21
51305;HTU21D;37392;50.964;6.952;2023-02-28T06:17:55;-1.24;84.77
51305;HTU21D;37392;50.964;6.952;2023-02-28T06:20:24;-1.26;85.12
51305;HTU21D;37392;50.964;6.952;2023-02-28T06:22:55;-1.34;84.98
51305;HTU21D;37392;50.964;6.952;2023-02-28T06:25:24;-1.27;84.84
51305;HTU21D;37392;50.964;6.952;2023-02-28T06:27:51;-1.27;84.42
51305;HTU21D;37392;50.964;6.952;2023-02-28T06:30:17;-1.17;84.39
51305;HTU21D;37392;50.964;6.952;2023-02-28T06:32:43;-1.11;84.15
51305;HTU21D;37392;50.964;6.952;2023-02-28T06:35:08;-1.10;84.28
51305;HTU21D;37392;50.964;6.952;2023-02-28T06:37:34;-1.17;84.48
51305;HTU21D;37392;50.964;6.952;2023-02-28T06:40:00;-1.15;84.84
51305;HTU21D;37392;50.964;6.952;2023-02-28T06:42:25;-1.12;84.86
51305;HTU21D;37392;50.964;6.952;2023-02-28T06:44:54;-0.88;84.77
51305;HTU21D;37392;50.964;6.952;2023-02-28T06:47:20;-0.31;84.03
51305;HTU21D;37392;50.964;6.952;2023-02-28T06:49:46;0.35;81.87
51305;HTU21D;37392;50.964;6.952;2023-02-28T06:52:12;0.89;79.67
51305;HTU21D;37392;50.964;6.952;2023-02-28T06:54:37;1.36;77.11
51305;HTU21D;37392;50.964;6.952;2023-02-28T06:57:03;1.77;75.46
51305;HTU21D;37392;50.964;6.952;2023-02-28T06:59:29;2.07;73.51
51305;HTU21D;37392;50.964;6.952;2023-02-28T07:01:54;2.47;72.58
51305;HTU21D;37392;50.964;6.952;2023-02-28T07:04:20;2.90;70.27
51305;HTU21D;37392;50.964;6.952;2023-02-28T07:06:57;3.12;68.91
51305;HTU21D;37392;50.964;6.952;2023-02-28T07:09:26;3.30;68.05
51305;HTU21D;37392;50.964;6.952;2023-02-28T07:11:55;3.40;67.13
51305;HTU21D;37392;50.964;6.952;2023-02-28T07:14:20;3.62;66.00
51305;HTU21D;37392;50.964;6.952;2023-02-28T07:16:47;3.74;65.63
51305;HTU21D;37392;50.964;6.952;2023-02-28T07:19:12;3.89;64.24
51305;HTU21D;37392;50.964;6.952;2023-02-28T07:21:38;3.94;63.85
51305;HTU21D;37392;50.964;6.952;2023-02-28T07:24:04;4.09;62.93
51305;HTU21D;37392;50.964;6.952;2023-02-28T07:26:29;4.23;62.99
51305;HTU21D;37392;50.964;6.952;2023-02-28T07:28:55;4.26;62.50
51305;HTU21D;37392;50.964;6.952;2023-02-28T07:31:20;4.47;61.83
51305;HTU21D;37392;50.964;6.952;2023-02-28T07:33:46;4.81;61.19
51305;HTU21D;37392;50.964;6.952;2023-02-28T07:36:14;5.03;60.25
51305;HTU21D;37392;50.964;6.952;2023-02-28T07:38:45;5.10;59.43
51305;HTU21D;37392;50.964;6.952;2023-02-28T07:41:20;5.10;58.90
51305;HTU21D;37392;50.964;6.952;2023-02-28T07:43:46;5.32;58.30
51305;HTU21D;37392;50.964;6.952;2023-02-28T07:46:14;5.30;57.52
51305;HTU21D;37392;50.964;6.952;2023-02-28T07:48:41;5.71;57.48
51305;HTU21D;37392;50.964;6.952;2023-02-28T07:51:07;5.63;56.50
51305;HTU21D;37392;50.964;6.952;2023-02-28T07:53:33;5.94;56.20
51305;HTU21D;37392;50.964;6.952;2023-02-28T07:56:00;6.17;55.16
51305;HTU21D;37392;50.964;6.952;2023-02-28T07:58:27;6.41;54.55
51305;HTU21D;37392;50.964;6.952;2023-02-28T08:00:54;6.49;53.91
51305;HTU21D;37392;50.964;6.952;2023-02-28T08:03:21;6.50;53.32
51305;HTU21D;37392;50.964;6.952;2023-02-28T08:05:48;6.38;52.69
51305;HTU21D;37392;50.964;6.952;2023-02-28T08:08:15;6.38;52.79
51305;HTU21D;37392;50.964;6.952;2023-02-28T08:10:42;6.79;52.43
51305;HTU21D;37392;50.964;6.952;2023-02-28T08:13:07;6.58;51.56
51305;HTU21D;37392;50.964;6.952;2023-02-28T08:15:33;6.39;51.69
51305;HTU21D;37392;50.964;6.952;2023-02-28T08:17:59;6.55;51.30
51305;HTU21D;37392;50.964;6.952;2023-02-28T08:20:25;6.75;51.08
51305;HTU21D;37392;50.964;6.952;2023-02-28T08:22:52;6.79;50.95
51305;HTU21D;37392;50.964;6.952;2023-02-28T08:25:17;7.25;50.34
51305;HTU21D;37392;50.964;6.952;2023-02-28T08:27:43;7.17;49.34
51305;HTU21D;37392;50.964;6.952;2023-02-28T08:30:14;7.30;49.56
51305;HTU21D;37392;50.964;6.952;2023-02-28T08:32:40;7.78;48.43
51305;HTU21D;37392;50.964;6.952;2023-02-28T08:35:06;7.50;48.21
51305;HTU21D;37392;50.964;6.952;2023-02-28T08:37:34;7.89;47.97
51305;HTU21D;37392;50.964;6.952;2023-02-28T08:40:00;7.77;46.72
51305;HTU21D;37392;50.964;6.952;2023-02-28T08:42:25;7.65;46.58
51305;HTU21D;37392;50.964;6.952;2023-02-28T08:44:51;7.81;46.29
51305;HTU21D;37392;50.964;6.952;2023-02-28T08:47:16;7.71;46.28
51305;HTU21D;37392;50.964;6.952;2023-02-28T08:49:42;7.81;45.58
51305;HTU21D;37392;50.964;6.952;2023-02-28T08:52:08;8.05;44.87
51305;HTU21D;37392;50.964;6.952;2023-02-28T08:54:35;8.02;44.14
51305;HTU21D;37392;50.964;6.952;2023-02-28T08:57:01;7.96;43.84
51305;HTU21D;37392;50.964;6.952;2023-02-28T08:59:27;8.09;43.58
51305;HTU21D;37392;50.964;6.952;2023-02-28T09:01:53;7.91;42.85
51305;HTU21D;37392;50.964;6.952;2023-02-28T09:04:18;8.04;43.03
51305;HTU21D;37392;50.964;6.952;2023-02-28T09:06:44;7.98;42.08
51305;HTU21D;37392;50.964;6.952;2023-02-28T09:09:10;8.15;42.14
51305;HTU21D;37392;50.964;6.952;2023-02-28T09:11:36;8.47;41.71
51305;HTU21D;37392;50.964;6.952;2023-02-28T09:14:02;8.90;41.53
51305;HTU21D;37392;50.964;6.952;2023-02-28T09:16:32;9.22;40.97
51305;HTU21D;37392;50.964;6.952;2023-02-28T09:18:58;9.39;40.47
51305;HTU21D;37392;50.964;6.952;2023-02-28T09:21:23;9.46;39.98
51305;HTU21D;37392;50.964;6.952;2023-02-28T09:23:49;9.45;39.89
51305;HTU21D;37392;50.964;6.952;2023-02-28T09:26:26;9.69;39.86
51305;HTU21D;37392;50.964;6.952;2023-02-28T09:28:53;9.57;39.55
51305;HTU21D;37392;50.964;6.952;2023-02-28T09:31:24;9.51;39.46
51305;HTU21D;37392;50.964;6.952;2023-02-28T09:33:53;9.62;39.23
51305;HTU21D;37392;50.964;6.952;2023-02-28T09:36:22;9.70;39.47
51305;HTU21D;37392;50.964;6.952;2023-02-28T09:38:49;10.00;39.02
51305;HTU21D;37392;50.964;6.952;2023-02-28T09:41:26;9.82;38.72
51305;HTU21D;37392;50.964;6.952;2023-02-28T09:43:56;9.75;39.23
51305;HTU21D;37392;50.964;6.952;2023-02-28T09:46:38;10.13;38.80
51305;HTU21D;37392;50.964;6.952;2023-02-28T09:49:10;9.83;38.51
51305;HTU21D;37392;50.964;6.952;2023-02-28T09:52:12;9.61;38.83
51305;HTU21D;37392;50.964;6.952;2023-02-28T09:54:41;9.59;38.94
51305;HTU21D;37392;50.964;6.952;2023-02-28T09:57:19;9.46;38.90
51305;HTU21D;37392;50.964;6.952;2023-02-28T10:02:51;9.64;38.25
51305;HTU21D;37392;50.964;6.952;2023-02-28T10:05:43;9.81;38.18
51305;HTU21D;37392;50.964;6.952;2023-02-28T10:08:29;10.41;38.26
51305;HTU21D;37392;50.964;6.952;2023-02-28T10:10:59;10.73;37.14
51305;HTU21D;37392;50.964;6.952;2023-02-28T10:13:48;10.34;37.08
51305;HTU21D;37392;50.964;6.952;2023-02-28T10:16:37;9.92;37.53
51305;HTU21D;37392;50.964;6.952;2023-02-28T10:24:46;11.28;36.82
51305;HTU21D;37392;50.964;6.952;2023-02-28T10:27:20;11.30;36.09
51305;HTU21D;37392;50.964;6.952;2023-02-28T10:29:51;10.85;36.45
51305;HTU21D;37392;50.964;6.952;2023-02-28T10:32:21;10.57;37.07
51305;HTU21D;37392;50.964;6.952;2023-02-28T10:35:15;10.77;36.93
51305;HTU21D;37392;50.964;6.952;2023-02-28T10:37:46;10.59;36.95
51305;HTU21D;37392;50.964;6.952;2023-02-28T10:45:24;10.46;37.29
51305;HTU21D;37392;50.964;6.952;2023-02-28T10:47:55;11.02;37.13
51305;HTU21D;37392;50.964;6.952;2023-02-28T10:58:59;11.23;36.68
51305;HTU21D;37392;50.964;6.952;2023-02-28T11:01:42;10.73;37.07
51305;HTU21D;37392;50.964;6.952;2023-02-28T11:06:57;9.68;38.40
51305;HTU21D;37392;50.964;6.952;2023-02-28T11:09:31;8.64;39.61
51305;HTU21D;37392;50.964;6.952;2023-02-28T11:12:06;7.67;42.00
51305;HTU21D;37392;50.964;6.952;2023-02-28T11:14:42;7.52;43.82
51305;HTU21D;37392;50.964;6.952;2023-02-28T11:17:20;7.23;44.85
51305;HTU21D;37392;50.964;6.952;2023-02-28T11:19:51;7.03;45.29
51305;HTU21D;37392;50.964;6.952;2023-02-28T11:22:22;7.18;45.70
51305;HTU21D;37392;50.964;6.952;2023-02-28T11:24:53;7.27;45.58
51305;HTU21D;37392;50.964;6.952;2023-02-28T11:29:55;7.10;45.93
51305;HTU21D;37392;50.964;6.952;2023-02-28T11:32:24;6.78;46.55
51305;HTU21D;37392;50.964;6.952;2023-02-28T11:37:34;6.33;47.89
51305;HTU21D;37392;50.964;6.952;2023-02-28T11:40:01;6.23;48.41
51305;HTU21D;37392;50.964;6.952;2023-02-28T11:45:42;6.00;48.82
51305;HTU21D;37392;50.964;6.952;2023-02-28T11:51:21;6.40;48.89
51305;HTU21D;37392;50.964;6.952;2023-02-28T11:57:16;6.58;48.46
51305;HTU21D;37392;50.964;6.952;2023-02-28T12:09:00;6.28;48.83
51305;HTU21D;37392;50.964;6.952;2023-02-28T12:28:50;5.40;49.34
51305;HTU21D;37392;50.964;6.952;2023-02-28T12:31:23;5.43;49.76
51305;HTU21D;37392;50.964;6.952;2023-02-28T12:33:53;5.50;50.17
51305;HTU21D;37392;50.964;6.952;2023-02-28T12:36:24;5.49;50.23
51305;HTU21D;37392;50.964;6.952;2023-02-28T12:39:28;5.45;50.73
51305;HTU21D;37392;50.964;6.952;2023-02-28T12:42:13;5.50;50.66
51305;HTU21D;37392;50.964;6.952;2023-02-28T12:44:47;5.35;50.39
51305;HTU21D;37392;50.964;6.952;2023-02-28T12:47:16;5.32;50.19
51305;HTU21D;37392;50.964;6.952;2023-02-28T12:49:50;5.32;50.53
51305;HTU21D;37392;50.964;6.952;2023-02-28T13:07:35;5.19;51.59
51305;HTU21D;37392;50.964;6.952;2023-02-28T13:09:58;5.20;51.56
51305;HTU21D;37392;50.964;6.952;2023-02-28T13:12:25;5.17;51.62
51305;HTU21D;37392;50.964;6.952;2023-02-28T13:15:07;5.24;51.75
51305;HTU21D;37392;50.964;6.952;2023-02-28T13:17:39;5.19;51.69
51305;HTU21D;37392;50.964;6.952;2023-02-28T13:20:16;5.17;52.04
51305;HTU21D;37392;50.964;6.952;2023-02-28T13:22:51;5.31;51.94
51305;HTU21D;37392;50.964;6.952;2023-02-28T13:27:47;5.33;50.79
51305;HTU21D;37392;50.964;6.952;2023-02-28T13:34:04;5.36;50.04
51305;HTU21D;37392;50.964;6.952;2023-02-28T13:36:29;5.40;50.33
51305;HTU21D;37392;50.964;6.952;2023-02-28T13:39:03;5.40;50.33
51305;HTU21D;37392;50.964;6.952;2023-02-28T13:45:19;5.32;50.38
51305;HTU21D;37392;50.964;6.952;2023-02-28T13:48:02;5.33;50.40
51305;HTU21D;37392;50.964;6.952;2023-02-28T13:50:32;5.28;50.21
51305;HTU21D;37392;50.964;6.952;2023-02-28T14:07:37;5.34;51.67
51305;HTU21D;37392;50.964;6.952;2023-02-28T14:10:07;5.28;51.82
51305;HTU21D;37392;50.964;6.952;2023-02-28T14:18:25;5.32;52.54
51305;HTU21D;37392;50.964;6.952;2023-02-28T14:20:58;5.39;52.88
51305;HTU21D;37392;50.964;6.952;2023-02-28T14:23:54;5.37;53.03
51305;HTU21D;37392;50.964;6.952;2023-02-28T14:29:53;5.49;52.80
51305;HTU21D;37392;50.964;6.952;2023-02-28T14:37:51;5.28;53.02
51305;HTU21D;37392;50.964;6.952;2023-02-28T14:40:30;5.32;53.01
51305;HTU21D;37392;50.964;6.952;2023-02-28T14:43:04;5.41;52.35
51305;HTU21D;37392;50.964;6.952;2023-02-28T14:45:32;5.38;52.04
51305;HTU21D;37392;50.964;6.952;2023-02-28T14:48:00;5.43;52.11
51305;HTU21D;37392;50.964;6.952;2023-02-28T14:50:33;5.38;52.16
51305;HTU21D;37392;50.964;6.952;2023-02-28T14:53:01;5.46;52.42
51305;HTU21D;37392;50.964;6.952;2023-02-28T14:55:47;5.41;52.32
51305;HTU21D;37392;50.964;6.952;2023-02-28T14:58:31;5.42;52.32
51305;HTU21D;37392;50.964;6.952;2023-02-28T15:01:00;5.45;52.51
51305;HTU21D;37392;50.964;6.952;2023-02-28T15:06:04;5.51;50.95
51305;HTU21D;37392;50.964;6.952;2023-02-28T15:08:31;5.41;51.17
51305;HTU21D;37392;50.964;6.952;2023-02-28T15:13:42;5.41;51.66
51305;HTU21D;37392;50.964;6.952;2023-02-28T15:16:30;5.40;52.11
51305;HTU21D;37392;50.964;6.952;2023-02-28T15:19:25;5.36;52.45
51305;HTU21D;37392;50.964;6.952;2023-02-28T15:22:06;5.38;52.32
51305;HTU21D;37392;50.964;6.952;2023-02-28T15:24:40;5.38;51.88
51305;HTU21D;37392;50.964;6.952;2023-02-28T15:27:15;5.41;52.06
51305;HTU21D;37392;50.964;6.952;2023-02-28T15:29:48;5.34;52.09
51305;HTU21D;37392;50.964;6.952;2023-02-28T15:34:57;5.21;52.64
51305;HTU21D;37392;50.964;6.952;2023-02-28T15:39:53;5.31;53.24
51305;HTU21D;37392;50.964;6.952;2023-02-28T15:42:21;5.37;53.35
51305;HTU21D;37392;50.964;6.952;2023-02-28T15:44:48;5.39;53.36
51305;HTU21D;37392;50.964;6.952;2023-02-28T15:47:20;5.40;53.04
51305;HTU21D;37392;50.964;6.952;2023-02-28T15:49:54;5.48;52.94
51305;HTU21D;37392;50.964;6.952;2023-02-28T15:52:29;5.37;53.13
51305;HTU21D;37392;50.964;6.952;2023-02-28T15:55:08;5.26;53.47
51305;HTU21D;37392;50.964;6.952;2023-02-28T15:57:35;5.39;53.68
51305;HTU21D;37392;50.964;6.952;2023-02-28T16:00:03;5.35;53.74
51305;HTU21D;37392;50.964;6.952;2023-02-28T16:02:36;5.34;53.62
51305;HTU21D;37392;50.964;6.952;2023-02-28T16:07:37;5.32;54.02
51305;HTU21D;37392;50.964;6.952;2023-02-28T16:10:07;5.34;54.13
51305;HTU21D;37392;50.964;6.952;2023-02-28T16:12:36;5.28;53.98
51305;HTU21D;37392;50.964;6.952;2023-02-28T16:15:08;5.21;54.10
51305;HTU21D;37392;50.964;6.952;2023-02-28T16:17:37;5.23;54.16
51305;HTU21D;37392;50.964;6.952;2023-02-28T16:20:33;5.12;54.22
51305;HTU21D;37392;50.964;6.952;2023-02-28T16:22:58;5.03;54.40
51305;HTU21D;37392;50.964;6.952;2023-02-28T16:25:41;5.08;54.76
51305;HTU21D;37392;50.964;6.952;2023-02-28T16:28:15;5.08;55.02
51305;HTU21D;37392;50.964;6.952;2023-02-28T16:30:44;5.00;54.81
51305;HTU21D;37392;50.964;6.952;2023-02-28T16:33:10;4.92;55.12
51305;HTU21D;37392;50.964;6.952;2023-02-28T16:35:35;4.89;55.23
51305;HTU21D;37392;50.964;6.952;2023-02-28T16:38:03;4.83;55.18
51305;HTU21D;37392;50.964;6.952;2023-02-28T16:40:33;4.84;55.36
51305;HTU21D;37392;50.964;6.952;2023-02-28T16:43:07;4.77;55.74
51305;HTU21D;37392;50.964;6.952;2023-02-28T16:45:41;4.59;56.03
51305;HTU21D;37392;50.964;6.952;2023-02-28T16:48:12;4.52;56.43
51305;HTU21D;37392;50.964;6.952;2023-02-28T16:50:39;4.47;57.00
51305;HTU21D;37392;50.964;6.952;2023-02-28T16:53:08;4.46;57.37
51305;HTU21D;37392;50.964;6.952;2023-02-28T16:55:34;4.32;57.53
51305;HTU21D;37392;50.964;6.952;2023-02-28T16:58:01;4.18;57.93
51305;HTU21D;37392;50.964;6.952;2023-02-28T17:00:30;4.24;58.20
51305;HTU21D;37392;50.964;6.952;2023-02-28T17:02:57;4.31;58.13
51305;HTU21D;37392;50.964;6.952;2023-02-28T17:05:24;4.31;58.38
51305;HTU21D;37392;50.964;6.952;2023-02-28T17:07:51;4.24;58.68
51305;HTU21D;37392;50.964;6.952;2023-02-28T17:10:22;4.17;59.10
51305;HTU21D;37392;50.964;6.952;2023-02-28T17:12:49;3.95;59.48
51305;HTU21D;37392;50.964;6.952;2023-02-28T17:15:18;4.14;59.51
51305;HTU21D;37392;50.964;6.952;2023-02-28T17:17:45;3.99;59.61
51305;HTU21D;37392;50.964;6.952;2023-02-28T17:20:17;3.88;60.03
51305;HTU21D;37392;50.964;6.952;2023-02-28T17:22:49;3.87;60.39
51305;HTU21D;37392;50.964;6.952;2023-02-28T17:25:15;3.91;60.45
51305;HTU21D;37392;50.964;6.952;2023-02-28T17:27:42;3.79;60.53
51305;HTU21D;37392;50.964;6.952;2023-02-28T17:30:19;3.86;61.02
51305;HTU21D;37392;50.964;6.952;2023-02-28T17:32:47;3.80;61.05
51305;HTU21D;37392;50.964;6.952;2023-02-28T17:35:13;3.78;61.33
51305;HTU21D;37392;50.964;6.952;2023-02-28T17:37:38;3.63;61.58
51305;HTU21D;37392;50.964;6.952;2023-02-28T17:40:05;3.59;61.84
51305;HTU21D;37392;50.964;6.952;2023-02-28T17:42:31;3.63;62.03
51305;HTU21D;37392;50.964;6.952;2023-02-28T17:44:57;3.70;61.70
51305;HTU21D;37392;50.964;6.952;2023-02-28T17:47:22;3.67;61.88
51305;HTU21D;37392;50.964;6.952;2023-02-28T17:49:48;3.55;62.31
51305;HTU21D;37392;50.964;6.952;2023-02-28T17:52:13;3.39;62.70
51305;HTU21D;37392;50.964;6.952;2023-02-28T17:54:39;3.35;63.20
51305;HTU21D;37392;50.964;6.952;2023-02-28T17:57:05;3.36;63.79
51305;HTU21D;37392;50.964;6.952;2023-02-28T17:59:33;3.42;64.60
51305;HTU21D;37392;50.964;6.952;2023-02-28T18:02:00;3.40;65.51
51305;HTU21D;37392;50.964;6.952;2023-02-28T18:04:26;3.36;66.35
51305;HTU21D;37392;50.964;6.952;2023-02-28T18:06:52;3.26;67.36
51305;HTU21D;37392;50.964;6.952;2023-02-28T18:09:20;3.24;68.14
51305;HTU21D;37392;50.964;6.952;2023-02-28T18:11:48;3.12;68.69
51305;HTU21D;37392;50.964;6.952;2023-02-28T18:14:18;2.97;69.30
51305;HTU21D;37392;50.964;6.952;2023-02-28T18:16:46;2.89;70.24
51305;HTU21D;37392;50.964;6.952;2023-02-28T18:19:12;2.81;70.54
51305;HTU21D;37392;50.964;6.952;2023-02-28T18:21:47;2.81;71.16
51305;HTU21D;37392;50.964;6.952;2023-02-28T18:24:15;2.62;71.59